Time;durP1;ratioP1;P1;durP2;ratioP2;P2;SDS_P1;SDS_P2;PMS_P1;PMS_P2;Temp;Humidity;BMP_temperature;BMP_pressure;BME280_temperature;BME280_humidity;BME280_pressure;Samples;Min_cycle;Max_cycle;Signal;HPM_P1;HPM_P2
2021/12/09 00:00:17;;;;;;;;;;;22.50;45.80;;;;;;5055146;28;19947;-76
2021/12/09 00:02:43;;;;;;;;;;;22.50;45.80;;;;;;5055915;28;20285;-76
2021/12/09 00:05:10;;;;;;;;;;;22.50;45.80;;;;;;5055298;28;19909;-77
2021/12/09 00:07:36;;;;;;;;;;;22.50;45.80;;;;;;5055211;28;20324;-77
2021/12/09 00:10:06;;;;;;;;;;;22.50;45.80;;;;;;5055310;28;19920;-78
2021/12/09 00:12:31;;;;;;;;;;;22.50;46.40;;;;;;5055464;28;19913;-78
2021/12/09 00:14:58;;;;;;;;;;;22.50;45.80;;;;;;5055545;28;20357;-78
2021/12/09 00:17:23;;;;;;;;;;;22.50;45.80;;;;;;5055261;28;19920;-76
2021/12/09 00:19:49;;;;;;;;;;;22.40;45.80;;;;;;5054973;28;19987;-77
2021/12/09 00:22:14;;;;;;;;;;;22.50;45.80;;;;;;5055459;28;19909;-77
2021/12/09 00:24:40;;;;;;;;;;;22.50;45.80;;;;;;5055158;28;19959;-76
2021/12/09 00:27:05;;;;;;;;;;;22.40;45.80;;;;;;5037462;28;19913;-77
2021/12/09 00:29:31;;;;;;;;;;;22.40;45.80;;;;;;5037332;28;19919;-78
2021/12/09 00:31:56;;;;;;;;;;;22.40;45.70;;;;;;5055090;28;19916;-77
2021/12/09 00:34:31;;;;;;;;;;;22.40;45.80;;;;;;5054462;28;20249;-78
2021/12/09 00:37:02;;;;;;;;;;;22.40;45.70;;;;;;5037230;28;19909;-77
2021/12/09 00:39:27;;;;;;;;;;;22.40;45.70;;;;;;5055161;28;19955;-77
2021/12/09 00:41:53;;;;;;;;;;;22.40;45.70;;;;;;5054992;28;19921;-78
2021/12/09 00:44:18;;;;;;;;;;;22.40;45.70;;;;;;5054812;28;19913;-77
2021/12/09 00:46:44;;;;;;;;;;;22.40;45.70;;;;;;5054876;28;19909;-76
2021/12/09 00:49:09;;;;;;;;;;;22.40;45.70;;;;;;5054243;28;19996;-77
2021/12/09 00:51:35;;;;;;;;;;;22.40;45.80;;;;;;5036843;28;19944;-77
2021/12/09 00:54:00;;;;;;;;;;;22.40;45.80;;;;;;5054906;28;19912;-78
2021/12/09 00:56:26;;;;;;;;;;;22.40;45.70;;;;;;5036715;28;19919;-78
2021/12/09 00:58:53;;;;;;;;;;;22.30;45.70;;;;;;5054649;28;19960;-77
2021/12/09 01:01:19;;;;;;;;;;;22.30;45.70;;;;;;5054414;28;20388;-78
2021/12/09 01:03:44;;;;;;;;;;;22.30;45.70;;;;;;5054035;28;19908;-76
2021/12/09 01:06:11;;;;;;;;;;;22.30;45.60;;;;;;5054674;28;20491;-77
2021/12/09 01:08:37;;;;;;;;;;;22.30;45.70;;;;;;5054701;28;19909;-78
2021/12/09 01:11:03;;;;;;;;;;;22.30;45.60;;;;;;5053994;28;19913;-77
2021/12/09 01:13:29;;;;;;;;;;;22.30;45.60;;;;;;5054398;28;19913;-77
2021/12/09 01:15:54;;;;;;;;;;;22.30;45.60;;;;;;5054401;28;19913;-77
2021/12/09 01:18:20;;;;;;;;;;;22.30;45.60;;;;;;5053815;28;19920;-78
2021/12/09 01:20:45;;;;;;;;;;;22.20;45.60;;;;;;5054172;28;19916;-78
2021/12/09 01:23:11;;;;;;;;;;;22.20;45.60;;;;;;5054681;28;19913;-77
2021/12/09 01:25:37;;;;;;;;;;;22.20;45.60;;;;;;5054445;28;19948;-77
2021/12/09 01:28:07;;;;;;;;;;;22.20;45.60;;;;;;5054291;28;20285;-78
2021/12/09 01:30:33;;;;;;;;;;;22.20;45.60;;;;;;5054318;28;20273;-78
2021/12/09 01:32:59;;;;;;;;;;;22.20;45.60;;;;;;5035866;28;19913;-78
2021/12/09 01:35:29;;;;;;;;;;;22.20;45.60;;;;;;5036354;28;20324;-78
2021/12/09 01:37:58;;;;;;;;;;;22.20;45.60;;;;;;5036365;28;19909;-79
2021/12/09 01:40:24;;;;;;;;;;;22.20;45.60;;;;;;5054020;28;20400;-78
2021/12/09 01:42:50;;;;;;;;;;;22.20;45.60;;;;;;5053833;28;19913;-80
2021/12/09 01:45:16;;;;;;;;;;;22.20;45.60;;;;;;5053389;28;20281;-78
2021/12/09 01:47:41;;;;;;;;;;;22.20;45.60;;;;;;5053802;28;19913;-78
2021/12/09 01:50:07;;;;;;;;;;;22.20;45.60;;;;;;5054115;28;19908;-78
2021/12/09 01:52:33;;;;;;;;;;;22.10;45.50;;;;;;5053828;28;19909;-78
2021/12/09 01:54:59;;;;;;;;;;;22.10;45.50;;;;;;5036129;28;20365;-78
2021/12/09 01:57:24;;;;;;;;;;;22.10;45.50;;;;;;5053328;28;19967;-77
2021/12/09 01:59:50;;;;;;;;;;;22.10;45.50;;;;;;5053089;28;19913;-78
2021/12/09 02:02:16;;;;;;;;;;;22.10;45.50;;;;;;5053450;28;19916;-85
2021/12/09 02:04:42;;;;;;;;;;;22.10;45.50;;;;;;5054526;28;20003;-84
2021/12/09 02:07:07;;;;;;;;;;;22.10;45.50;;;;;;5054360;28;19909;-85
2021/12/09 02:09:35;;;;;;;;;;;22.00;45.50;;;;;;5054262;28;19924;-85
2021/12/09 02:12:00;;;;;;;;;;;22.10;45.60;;;;;;5054282;28;19946;-84
2021/12/09 02:14:26;;;;;;;;;;;22.00;45.50;;;;;;5054307;28;19917;-85
2021/12/09 02:16:51;;;;;;;;;;;22.00;45.50;;;;;;5054124;28;19913;-85
2021/12/09 02:19:17;;;;;;;;;;;22.00;45.50;;;;;;5054581;28;19952;-84
2021/12/09 02:21:43;;;;;;;;;;;22.00;45.50;;;;;;5056593;28;19924;-85
2021/12/09 02:24:14;;;;;;;;;;;22.00;45.50;;;;;;5054342;28;19913;-85
2021/12/09 02:26:41;;;;;;;;;;;22.00;45.50;;;;;;5054197;28;20210;-85
2021/12/09 02:29:07;;;;;;;;;;;22.00;45.50;;;;;;5053771;28;19974;-84
2021/12/09 02:31:33;;;;;;;;;;;22.00;45.50;;;;;;5054102;28;19944;-84
2021/12/09 02:33:59;;;;;;;;;;;21.90;45.40;;;;;;5036034;28;19920;-84
2021/12/09 02:36:25;;;;;;;;;;;21.90;45.40;;;;;;5053896;28;19944;-84
2021/12/09 02:38:50;;;;;;;;;;;22.00;45.50;;;;;;5053879;28;19916;-85
2021/12/09 02:41:18;;;;;;;;;;;22.00;45.50;;;;;;5054284;28;19924;-84
2021/12/09 02:43:45;;;;;;;;;;;21.90;45.40;;;;;;5053473;28;19917;-84
2021/12/09 02:46:11;;;;;;;;;;;21.90;45.40;;;;;;5053618;28;19916;-85
2021/12/09 02:48:36;;;;;;;;;;;21.90;45.40;;;;;;5052547;28;20015;-69
2021/12/09 02:51:03;;;;;;;;;;;21.90;45.40;;;;;;5052209;28;19909;-71
2021/12/09 02:53:29;;;;;;;;;;;21.90;45.40;;;;;;5051992;28;19909;-70
2021/12/09 02:55:54;;;;;;;;;;;21.90;45.40;;;;;;5051994;28;20387;-70
2021/12/09 02:58:20;;;;;;;;;;;21.90;45.40;;;;;;5051531;28;19920;-70
2021/12/09 03:00:51;;;;;;;;;;;21.80;45.40;;;;;;5051869;28;20389;-70
2021/12/09 03:03:17;;;;;;;;;;;21.80;45.40;;;;;;5034227;28;20333;-71
2021/12/09 03:05:44;;;;;;;;;;;21.80;45.40;;;;;;5051938;28;19909;-71
2021/12/09 03:08:09;;;;;;;;;;;21.80;45.40;;;;;;5051895;28;19909;-70
2021/12/09 03:10:35;;;;;;;;;;;21.80;45.40;;;;;;5051887;28;19912;-70
2021/12/09 03:13:04;;;;;;;;;;;21.80;45.30;;;;;;5051268;28;19956;-70
2021/12/09 03:15:32;;;;;;;;;;;21.80;45.40;;;;;;5051773;28;19928;-70
2021/12/09 03:17:58;;;;;;;;;;;21.70;45.30;;;;;;5051500;28;19920;-70
2021/12/09 03:20:23;;;;;;;;;;;21.80;45.40;;;;;;5051652;28;19951;-71
2021/12/09 03:22:49;;;;;;;;;;;21.70;45.30;;;;;;5033830;28;19913;-70
2021/12/09 03:25:15;;;;;;;;;;;21.80;45.40;;;;;;5033826;28;19909;-70
2021/12/09 03:27:41;;;;;;;;;;;21.70;45.30;;;;;;5051116;28;19916;-68
2021/12/09 03:30:08;;;;;;;;;;;21.70;45.30;;;;;;5051548;28;19908;-69
2021/12/09 03:32:33;;;;;;;;;;;21.70;45.30;;;;;;5052145;28;19916;-70
2021/12/09 03:34:59;;;;;;;;;;;21.70;45.30;;;;;;5055756;28;19909;-70
2021/12/09 03:37:25;;;;;;;;;;;21.70;45.30;;;;;;5055723;28;19943;-69
2021/12/09 03:39:51;;;;;;;;;;;21.70;45.30;;;;;;5055602;28;19912;-70
2021/12/09 03:42:18;;;;;;;;;;;21.60;45.30;;;;;;5037205;28;19909;-69
2021/12/09 03:44:44;;;;;;;;;;;21.70;45.30;;;;;;5055556;28;20380;-70
2021/12/09 03:47:11;;;;;;;;;;;21.60;45.30;;;;;;5055442;28;19917;-70
2021/12/09 03:49:37;;;;;;;;;;;21.70;45.30;;;;;;5055239;28;20415;-70
2021/12/09 03:52:02;;;;;;;;;;;21.60;45.20;;;;;;5055370;28;20019;-70
2021/12/09 03:54:28;;;;;;;;;;;21.60;45.30;;;;;;5055296;28;19915;-71
2021/12/09 03:56:53;;;;;;;;;;;21.60;45.30;;;;;;5054789;28;19912;-70
2021/12/09 03:59:19;;;;;;;;;;;21.60;45.30;;;;;;5055153;28;19916;-71
2021/12/09 04:01:45;;;;;;;;;;;21.60;45.30;;;;;;5037307;28;19979;-70
2021/12/09 04:04:11;;;;;;;;;;;21.60;45.30;;;;;;5055119;28;19924;-70
2021/12/09 04:06:37;;;;;;;;;;;21.60;45.30;;;;;;5055209;28;20281;-71
2021/12/09 04:09:05;;;;;;;;;;;21.60;45.30;;;;;;5055002;28;20368;-69
2021/12/09 04:11:30;;;;;;;;;;;21.60;45.30;;;;;;5054426;28;19983;-70
2021/12/09 04:13:56;;;;;;;;;;;21.50;45.20;;;;;;5055018;28;19909;-70
2021/12/09 04:16:21;;;;;;;;;;;21.60;45.30;;;;;;5054863;28;19908;-70
2021/12/09 04:18:47;;;;;;;;;;;21.50;45.20;;;;;;5054758;28;19921;-70
2021/12/09 04:21:13;;;;;;;;;;;21.50;45.20;;;;;;5054826;28;19921;-69
2021/12/09 04:23:39;;;;;;;;;;;21.50;45.20;;;;;;5054731;28;19916;-69
2021/12/09 04:26:05;;;;;;;;;;;21.50;45.20;;;;;;5054208;28;20404;-70
2021/12/09 04:28:31;;;;;;;;;;;21.50;45.20;;;;;;5054864;28;19960;-70
2021/12/09 04:30:56;;;;;;;;;;;21.50;45.20;;;;;;5036700;28;19952;-70
2021/12/09 04:33:22;;;;;;;;;;;21.50;45.20;;;;;;5054624;28;19919;-69
2021/12/09 04:35:48;;;;;;;;;;;21.50;45.20;;;;;;5054585;28;19913;-71
2021/12/09 04:38:13;;;;;;;;;;;21.40;45.10;;;;;;5054347;28;19962;-70
2021/12/09 04:40:38;;;;;;;;;;;21.50;45.20;;;;;;5053801;28;19940;-71
2021/12/09 04:43:04;;;;;;;;;;;21.40;45.10;;;;;;5054569;28;19909;-70
2021/12/09 04:45:30;;;;;;;;;;;21.40;45.20;;;;;;5053489;28;20001;-70
2021/12/09 04:47:56;;;;;;;;;;;21.40;45.20;;;;;;5054305;28;20392;-70
2021/12/09 04:50:24;;;;;;;;;;;21.40;45.10;;;;;;5054277;28;20246;-70
2021/12/09 04:52:50;;;;;;;;;;;21.40;45.10;;;;;;5054109;28;20387;-70
2021/12/09 04:55:15;;;;;;;;;;;21.40;45.10;;;;;;5053635;28;20003;-70
2021/12/09 04:57:42;;;;;;;;;;;21.40;45.10;;;;;;5054222;28;19909;-70
2021/12/09 05:00:09;;;;;;;;;;;21.40;45.20;;;;;;5053985;28;20003;-70
2021/12/09 05:03:01;;;;;;;;;;;21.40;45.10;;;;;;5036210;28;19916;-69
2021/12/09 05:05:27;;;;;;;;;;;21.40;45.10;;;;;;5054082;28;19916;-70
2021/12/09 05:07:52;;;;;;;;;;;21.40;45.10;;;;;;5053958;28;20001;-70
2021/12/09 05:10:18;;;;;;;;;;;21.40;45.10;;;;;;5053329;28;20037;-70
2021/12/09 05:12:44;;;;;;;;;;;21.40;45.10;;;;;;5035913;28;19963;-70
2021/12/09 05:15:09;;;;;;;;;;;21.40;45.10;;;;;;5053852;28;19917;-70
2021/12/09 05:17:35;;;;;;;;;;;21.30;45.10;;;;;;5053566;28;20369;-70
2021/12/09 05:20:00;;;;;;;;;;;21.40;45.10;;;;;;5053713;28;20011;-70
2021/12/09 05:22:26;;;;;;;;;;;21.30;45.10;;;;;;5053677;28;19909;-69
2021/12/09 05:24:52;;;;;;;;;;;21.30;45.10;;;;;;5053092;28;19952;-70
2021/12/09 05:27:18;;;;;;;;;;;21.30;45.10;;;;;;5053659;28;20361;-70
2021/12/09 05:29:46;;;;;;;;;;;21.30;45.10;;;;;;5053650;28;19955;-69
2021/12/09 05:32:12;;;;;;;;;;;21.30;45.10;;;;;;5053463;28;19913;-70
2021/12/09 05:34:38;;;;;;;;;;;21.30;45.10;;;;;;5053308;28;19944;-69
2021/12/09 05:37:05;;;;;;;;;;;21.30;45.10;;;;;;5053433;28;19909;-70
2021/12/09 05:39:30;;;;;;;;;;;21.30;45.10;;;;;;5053253;28;19913;-69
2021/12/09 05:41:56;;;;;;;;;;;21.30;45.10;;;;;;5035298;28;19923;-70
2021/12/09 05:44:21;;;;;;;;;;;21.20;45.00;;;;;;5035362;28;19916;-71
2021/12/09 05:46:47;;;;;;;;;;;21.20;45.00;;;;;;5053153;28;19917;-67
2021/12/09 05:49:14;;;;;;;;;;;21.30;45.10;;;;;;5053191;28;20007;-71
2021/12/09 05:51:40;;;;;;;;;;;21.20;45.00;;;;;;5052707;28;19967;-71
2021/12/09 05:54:06;;;;;;;;;;;21.20;45.00;;;;;;5053078;28;19955;-73
2021/12/09 05:56:32;;;;;;;;;;;21.20;45.00;;;;;;5052998;28;20316;-71
2021/12/09 05:58:57;;;;;;;;;;;21.20;45.00;;;;;;5052986;28;19909;-70
2021/12/09 06:01:22;;;;;;;;;;;21.20;45.00;;;;;;5052909;28;19927;-74
2021/12/09 06:03:48;;;;;;;;;;;21.20;45.00;;;;;;5052866;28;19951;-59
2021/12/09 06:06:14;;;;;;;;;;;21.20;45.00;;;;;;5052465;28;19912;-59
2021/12/09 06:08:40;;;;;;;;;;;21.20;45.00;;;;;;5052830;28;19909;-65
2021/12/09 06:11:06;;;;;;;;;;;21.30;45.00;;;;;;5052703;28;20365;-66
2021/12/09 06:13:36;;;;;;;;;;;21.20;45.00;;;;;;5052712;28;19959;-65
2021/12/09 06:16:01;;;;;;;;;;;21.30;45.00;;;;;;5052584;28;19949;-62
2021/12/09 06:18:27;;;;;;;;;;;21.20;45.00;;;;;;5052809;28;19964;-65
2021/12/09 06:20:52;;;;;;;;;;;21.30;45.00;;;;;;5051951;28;19917;-63
2021/12/09 06:23:18;;;;;;;;;;;21.30;45.00;;;;;;5052524;28;19962;-63
2021/12/09 06:25:43;;;;;;;;;;;21.30;45.00;;;;;;5052454;28;20269;-62
2021/12/09 06:28:09;;;;;;;;;;;21.30;45.00;;;;;;5052514;28;19908;-62
2021/12/09 06:30:34;;;;;;;;;;;21.30;45.00;;;;;;5052319;28;19913;-66
2021/12/09 06:33:01;;;;;;;;;;;21.30;45.10;;;;;;5052358;28;19913;-65
2021/12/09 06:35:27;;;;;;;;;;;21.30;45.10;;;;;;5051812;28;19909;-64
2021/12/09 06:37:55;;;;;;;;;;;21.30;45.10;;;;;;5052594;28;19912;-66
2021/12/09 06:40:22;;;;;;;;;;;21.40;45.30;;;;;;5052198;28;19921;-64
2021/12/09 06:42:48;;;;;;;;;;;21.40;45.20;;;;;;5052113;28;19909;-64
2021/12/09 06:45:15;;;;;;;;;;;21.40;45.30;;;;;;5052100;28;19921;-65
2021/12/09 06:47:41;;;;;;;;;;;21.40;45.30;;;;;;5052115;28;20373;-65
2021/12/09 06:50:07;;;;;;;;;;;21.40;45.30;;;;;;5051659;28;19909;-65
2021/12/09 06:52:33;;;;;;;;;;;21.40;45.30;;;;;;5051971;28;19909;-64
2021/12/09 06:54:59;;;;;;;;;;;21.40;45.30;;;;;;5052036;28;19909;-64
2021/12/09 06:57:25;;;;;;;;;;;21.50;45.40;;;;;;5052051;28;19916;-49
2021/12/09 06:59:51;;;;;;;;;;;21.50;45.40;;;;;;5051802;28;19917;-50
2021/12/09 07:02:17;;;;;;;;;;;21.50;45.40;;;;;;5051802;28;19921;-50
2021/12/09 07:04:42;;;;;;;;;;;21.50;45.40;;;;;;5051240;28;20431;-64
2021/12/09 07:07:08;;;;;;;;;;;21.50;45.40;;;;;;5051577;28;19908;-64
2021/12/09 07:09:33;;;;;;;;;;;21.60;45.50;;;;;;5051823;28;19963;-65
2021/12/09 07:11:59;;;;;;;;;;;21.60;45.50;;;;;;5051794;28;20008;-65
2021/12/09 07:14:25;;;;;;;;;;;21.60;45.50;;;;;;5051812;28;19944;-65
2021/12/09 07:16:50;;;;;;;;;;;21.60;45.50;;;;;;5051772;28;19917;-65
2021/12/09 07:19:16;;;;;;;;;;;21.60;45.50;;;;;;5051205;28;19927;-64
2021/12/09 07:21:42;;;;;;;;;;;21.60;45.50;;;;;;5033791;28;19952;-64
2021/12/09 07:24:07;;;;;;;;;;;21.70;45.60;;;;;;5033838;28;20377;-65
2021/12/09 07:26:33;;;;;;;;;;;21.60;45.50;;;;;;5051718;28;19935;-65
2021/12/09 07:28:58;;;;;;;;;;;21.60;45.60;;;;;;5051504;28;19908;-65
2021/12/09 07:31:25;;;;;;;;;;;21.70;45.60;;;;;;5051892;28;19912;-65
2021/12/09 07:33:51;;;;;;;;;;;21.70;45.60;;;;;;5051069;28;19913;-65
2021/12/09 07:36:16;;;;;;;;;;;21.70;45.70;;;;;;5051633;28;20289;-66
2021/12/09 07:38:42;;;;;;;;;;;21.70;45.60;;;;;;5051622;28;19917;-66
2021/12/09 07:41:08;;;;;;;;;;;21.70;45.60;;;;;;5051612;28;19959;-65
2021/12/09 07:43:33;;;;;;;;;;;21.70;45.60;;;;;;5051526;28;20357;-65
2021/12/09 07:45:59;;;;;;;;;;;21.80;45.70;;;;;;5051452;28;19932;-66
2021/12/09 07:48:25;;;;;;;;;;;21.80;45.70;;;;;;5051021;28;19959;-69
2021/12/09 07:50:50;;;;;;;;;;;21.80;45.70;;;;;;5051505;28;19947;-69
2021/12/09 07:53:17;;;;;;;;;;;21.80;45.70;;;;;;5049225;28;19909;-70
2021/12/09 07:55:43;;;;;;;;;;;21.80;45.60;;;;;;5057672;28;19909;-69
2021/12/09 07:58:09;;;;;;;;;;;21.80;45.70;;;;;;5066338;28;19908;-69
2021/12/09 08:00:34;;;;;;;;;;;21.80;45.60;;;;;;5063065;28;19924;-68
2021/12/09 08:03:00;;;;;;;;;;;21.80;45.70;;;;;;5050709;28;19917;-70
2021/12/09 08:05:27;;;;;;;;;;;21.90;45.70;;;;;;5051233;28;19909;-74
2021/12/09 08:07:53;;;;;;;;;;;21.90;45.70;;;;;;5051064;28;19913;-71
2021/12/09 08:10:19;;;;;;;;;;;21.90;45.70;;;;;;5051103;28;19915;-71
2021/12/09 08:12:45;;;;;;;;;;;21.90;45.70;;;;;;5033259;28;19913;-68
2021/12/09 08:15:12;;;;;;;;;;;21.90;45.70;;;;;;5032578;28;20280;-70
2021/12/09 08:20:07;;;;;;;;;;;21.90;45.70;;;;;;5052580;28;20004;-76
2021/12/09 08:22:33;;;;;;;;;;;21.90;45.70;;;;;;5055003;28;19991;-69
2021/12/09 08:24:59;;;;;;;;;;;22.00;45.70;;;;;;5054772;28;19952;-69
2021/12/09 08:27:25;;;;;;;;;;;22.00;45.70;;;;;;5054546;28;19955;-70
2021/12/09 08:29:51;;;;;;;;;;;22.00;45.70;;;;;;5054548;28;19912;-64
2021/12/09 08:32:16;;;;;;;;;;;22.10;45.80;;;;;;5054080;28;19912;-77
2021/12/09 08:34:41;;;;;;;;;;;22.10;45.80;;;;;;5054562;28;20023;-71
2021/12/09 08:37:07;;;;;;;;;;;22.10;45.80;;;;;;5054424;28;19916;-70
2021/12/09 08:39:32;;;;;;;;;;;22.10;45.80;;;;;;5054935;28;19909;-71
2021/12/09 08:41:58;;;;;;;;;;;22.10;45.80;;;;;;5054258;28;19921;-68
2021/12/09 08:44:23;;;;;;;;;;;22.20;45.80;;;;;;5053968;28;20058;-72
2021/12/09 08:46:49;;;;;;;;;;;22.20;45.80;;;;;;5056180;28;19916;-71
2021/12/09 08:49:14;;;;;;;;;;;22.20;45.80;;;;;;5074086;28;19919;-69
2021/12/09 08:51:40;;;;;;;;;;;22.20;45.90;;;;;;5061855;28;19917;-70
2021/12/09 08:54:06;;;;;;;;;;;22.30;45.90;;;;;;5054159;28;19909;-71
2021/12/09 08:56:32;;;;;;;;;;;22.30;45.90;;;;;;5053854;28;19952;-78
2021/12/09 08:58:57;;;;;;;;;;;22.30;45.90;;;;;;5054198;28;19916;-69
2021/12/09 09:01:22;;;;;;;;;;;22.30;45.90;;;;;;5053615;28;19923;-75
2021/12/09 09:03:48;;;;;;;;;;;22.30;45.90;;;;;;5053838;28;19935;-72
2021/12/09 09:06:14;;;;;;;;;;;22.40;45.90;;;;;;5053898;28;19912;-76
2021/12/09 09:08:39;;;;;;;;;;;22.40;46.00;;;;;;5054005;28;19935;-71
2021/12/09 09:11:05;;;;;;;;;;;22.40;46.00;;;;;;5053820;28;20210;-70
2021/12/09 09:13:30;;;;;;;;;;;22.40;46.00;;;;;;5053723;28;20373;-66
2021/12/09 09:15:56;;;;;;;;;;;22.40;46.00;;;;;;5053570;28;19916;-68
2021/12/09 09:18:21;;;;;;;;;;;22.40;46.00;;;;;;5053442;28;20377;-68
2021/12/09 09:20:47;;;;;;;;;;;22.50;46.00;;;;;;5035767;28;19921;-69
2021/12/09 09:23:13;;;;;;;;;;;22.50;46.00;;;;;;5053670;28;20284;-65
2021/12/09 09:25:40;;;;;;;;;;;22.40;45.80;;;;;;5053408;28;20322;-64
2021/12/09 09:28:06;;;;;;;;;;;22.40;45.80;;;;;;5053444;28;19909;-65
2021/12/09 09:30:36;;;;;;;;;;;22.40;45.80;;;;;;5052630;28;19916;-66
2021/12/09 09:33:09;;;;;;;;;;;22.40;45.70;;;;;;5035546;28;19920;-66
2021/12/09 09:35:35;;;;;;;;;;;22.40;45.70;;;;;;5035474;28;19962;-64
2021/12/09 09:38:01;;;;;;;;;;;22.40;45.70;;;;;;5053293;28;19913;-65
2021/12/09 09:40:28;;;;;;;;;;;22.40;45.70;;;;;;5053072;28;20332;-64
2021/12/09 09:43:04;;;;;;;;;;;22.40;45.60;;;;;;5053158;28;20369;-66
2021/12/09 09:45:30;;;;;;;;;;;22.40;45.70;;;;;;5051977;28;19916;-66
2021/12/09 09:47:56;;;;;;;;;;;22.40;45.60;;;;;;5053003;28;20373;-66
2021/12/09 09:50:22;;;;;;;;;;;22.40;45.60;;;;;;5052902;28;19909;-66
2021/12/09 09:52:47;;;;;;;;;;;22.40;45.60;;;;;;5052919;28;20496;-65
2021/12/09 09:55:20;;;;;;;;;;;22.40;46.20;;;;;;5052939;28;20392;-65
2021/12/09 09:57:45;;;;;;;;;;;22.40;45.60;;;;;;5033121;28;19909;-66
2021/12/09 10:00:12;;;;;;;;;;;22.40;45.60;;;;;;5032432;28;20281;-65
2021/12/09 10:02:38;;;;;;;;;;;22.40;45.50;;;;;;5015247;28;19909;-65
2021/12/09 10:05:06;;;;;;;;;;;22.40;45.50;;;;;;5015293;28;19920;-65
2021/12/09 10:07:34;;;;;;;;;;;22.40;45.50;;;;;;5032734;28;20444;-65
2021/12/09 10:09:59;;;;;;;;;;;22.40;45.50;;;;;;5032794;28;20384;-65
2021/12/09 10:12:25;;;;;;;;;;;22.40;45.50;;;;;;5015051;28;19917;-65
2021/12/09 10:14:52;;;;;;;;;;;22.40;45.50;;;;;;5032071;28;20004;-65
2021/12/09 10:17:19;;;;;;;;;;;22.40;45.40;;;;;;5042706;28;19925;-65
2021/12/09 10:19:47;;;;;;;;;;;22.40;45.50;;;;;;5052504;28;20357;-65
2021/12/09 10:22:17;;;;;;;;;;;22.40;45.40;;;;;;5052356;28;19923;-65
2021/12/09 10:24:43;;;;;;;;;;;22.40;45.40;;;;;;5051957;28;20372;-66
2021/12/09 10:27:13;;;;;;;;;;;22.40;45.40;;;;;;5051484;28;19916;-63
2021/12/09 10:29:43;;;;;;;;;;;22.40;45.40;;;;;;5051927;28;19940;-66
2021/12/09 10:32:12;;;;;;;;;;;22.40;45.40;;;;;;5052048;28;19909;-69
2021/12/09 10:34:41;;;;;;;;;;;22.40;45.40;;;;;;5052170;28;19956;-66
2021/12/09 10:37:26;;;;;;;;;;;22.50;45.40;;;;;;5052439;28;19909;-67
2021/12/09 10:39:53;;;;;;;;;;;22.50;45.40;;;;;;5052142;28;19909;-66
2021/12/09 10:42:22;;;;;;;;;;;22.50;45.40;;;;;;5050846;28;19916;-65
2021/12/09 10:44:49;;;;;;;;;;;22.50;45.30;;;;;;5052217;28;19971;-67
2021/12/09 10:47:32;;;;;;;;;;;22.50;45.30;;;;;;5052195;28;20196;-66
2021/12/09 10:50:08;;;;;;;;;;;22.50;45.40;;;;;;5052060;28;19958;-66
2021/12/09 10:52:38;;;;;;;;;;;22.40;45.30;;;;;;5051988;28;19917;-66
2021/12/09 10:55:12;;;;;;;;;;;22.40;45.30;;;;;;5051920;28;20308;-66
2021/12/09 10:57:38;;;;;;;;;;;22.40;45.30;;;;;;5051170;28;20404;-67
2021/12/09 11:00:22;;;;;;;;;;;22.50;45.40;;;;;;5052091;28;19913;-67
2021/12/09 11:02:58;;;;;;;;;;;22.50;45.40;;;;;;5051747;28;19948;-67
2021/12/09 11:05:26;;;;;;;;;;;22.50;45.40;;;;;;5051520;28;21407;-67
2021/12/09 11:07:51;;;;;;;;;;;22.50;45.40;;;;;;5051711;28;20258;-68
2021/12/09 11:10:24;;;;;;;;;;;22.50;45.30;;;;;;5051705;28;19931;-64
2021/12/09 11:12:55;;;;;;;;;;;22.50;45.30;;;;;;5051299;28;19908;-62
2021/12/09 11:15:23;;;;;;;;;;;22.50;45.30;;;;;;5051730;28;19917;-61
2021/12/09 11:17:51;;;;;;;;;;;22.50;45.30;;;;;;5051521;28;19966;-64
2021/12/09 11:20:35;;;;;;;;;;;22.50;45.30;;;;;;5051576;28;20261;-68
2021/12/09 11:23:20;;;;;;;;;;;22.50;45.30;;;;;;5051597;28;19916;-64
2021/12/09 11:25:45;;;;;;;;;;;22.50;45.40;;;;;;5051159;28;19958;-62
2021/12/09 11:28:12;;;;;;;;;;;22.50;46.00;;;;;;5051716;28;20320;-63
2021/12/09 11:31:01;;;;;;;;;;;22.50;45.40;;;;;;5051631;28;19940;-59
2021/12/09 11:33:28;;;;;;;;;;;22.60;45.50;;;;;;5051835;28;19909;-59
2021/12/09 11:35:54;;;;;;;;;;;22.60;45.60;;;;;;5051765;28;19909;-60
2021/12/09 11:38:41;;;;;;;;;;;22.60;45.70;;;;;;5051678;28;20348;-60
2021/12/09 11:41:05;;;;;;;;;;;22.70;45.80;;;;;;5050723;28;19917;-60
2021/12/09 11:43:30;;;;;;;;;;;22.70;45.80;;;;;;5051432;28;19916;-59
2021/12/09 11:45:59;;;;;;;;;;;22.70;45.80;;;;;;5051390;28;20384;-61
2021/12/09 11:48:25;;;;;;;;;;;22.80;46.00;;;;;;5051448;28;20276;-65
2021/12/09 11:50:51;;;;;;;;;;;22.80;45.90;;;;;;5051322;28;20361;-67
2021/12/09 11:53:18;;;;;;;;;;;22.80;46.00;;;;;;5051749;28;19913;-66
2021/12/09 11:55:52;;;;;;;;;;;22.80;46.00;;;;;;5055499;28;19988;-71
2021/12/09 11:58:26;;;;;;;;;;;22.90;46.00;;;;;;5056080;28;20042;-69
2021/12/09 12:12:28;;;;;;;;;;;22.90;46.00;;;;;;5050367;28;19915;-62
2021/12/09 12:14:58;;;;;;;;;;;22.90;46.10;;;;;;5071281;28;19912;-62
2021/12/09 12:20:00;;;;;;;;;;;22.90;46.10;;;;;;5054190;28;19917;-61
2021/12/09 12:25:35;;;;;;;;;;;22.90;46.10;;;;;;5061459;28;19913;-62
2021/12/09 12:28:30;;;;;;;;;;;22.90;46.10;;;;;;5074652;28;19913;-62
2021/12/09 12:33:49;;;;;;;;;;;22.90;46.10;;;;;;5074844;28;19956;-62
2021/12/09 12:36:52;;;;;;;;;;;22.90;46.10;;;;;;5074456;28;20357;-60
2021/12/09 12:39:13;;;;;;;;;;;22.90;46.20;;;;;;5073630;28;19908;-61
2021/12/09 12:41:59;;;;;;;;;;;22.90;46.10;;;;;;5074195;28;19924;-62
2021/12/09 12:44:24;;;;;;;;;;;22.90;46.20;;;;;;5074486;28;19912;-61
2021/12/09 12:51:53;;;;;;;;;;;22.90;46.10;;;;;;5074141;28;20372;-62
2021/12/09 12:57:15;;;;;;;;;;;22.90;46.10;;;;;;5074304;28;19909;-61
2021/12/09 12:59:42;;;;;;;;;;;22.90;46.10;;;;;;5074117;28;19920;-61
2021/12/09 13:02:18;;;;;;;;;;;23.00;46.10;;;;;;5073949;28;19916;-61
2021/12/09 13:07:21;;;;;;;;;;;22.90;46.00;;;;;;5073151;28;19909;-62
2021/12/09 13:10:03;;;;;;;;;;;23.00;46.10;;;;;;5074131;28;19915;-61
2021/12/09 13:12:35;;;;;;;;;;;23.00;46.10;;;;;;5035491;28;19909;-62
2021/12/09 13:15:23;;;;;;;;;;;23.00;46.10;;;;;;5053856;28;20265;-62
2021/12/09 13:17:59;;;;;;;;;;;23.00;46.10;;;;;;5052464;28;20437;-62
2021/12/09 13:20:30;;;;;;;;;;;23.00;46.10;;;;;;5053794;28;19919;-62
2021/12/09 13:23:14;;;;;;;;;;;23.00;46.10;;;;;;5053083;28;19913;-62
2021/12/09 13:25:59;;;;;;;;;;;23.00;46.00;;;;;;5053761;28;19915;-61
2021/12/09 13:28:35;;;;;;;;;;;23.00;46.00;;;;;;5053454;28;19912;-61
2021/12/09 13:31:12;;;;;;;;;;;23.00;46.00;;;;;;5053643;28;20377;-61
2021/12/09 13:33:47;;;;;;;;;;;23.00;46.00;;;;;;5053574;28;19915;-62
2021/12/09 13:39:25;;;;;;;;;;;23.00;46.00;;;;;;5035266;28;19909;-62
2021/12/09 13:50:32;;;;;;;;;;;23.00;45.90;;;;;;5052960;28;19916;-65
2021/12/09 13:55:30;;;;;;;;;;;23.00;45.80;;;;;;5053012;28;19955;-65
2021/12/09 13:57:57;;;;;;;;;;;23.00;45.80;;;;;;5052902;28;20385;-65
2021/12/09 14:00:26;;;;;;;;;;;23.00;45.90;;;;;;5052564;28;19920;-65
2021/12/09 14:02:55;;;;;;;;;;;23.00;45.90;;;;;;5052848;28;19980;-65
2021/12/09 14:05:20;;;;;;;;;;;23.00;45.90;;;;;;5052424;28;19970;-64
2021/12/09 14:08:05;;;;;;;;;;;23.00;45.80;;;;;;5053006;28;20369;-66
2021/12/09 14:10:35;;;;;;;;;;;23.10;45.90;;;;;;5052648;28;19920;-65
2021/12/09 14:13:05;;;;;;;;;;;23.10;45.90;;;;;;5052734;28;20007;-66
2021/12/09 14:15:40;;;;;;;;;;;23.10;45.80;;;;;;5052621;28;19912;-64
2021/12/09 14:18:10;;;;;;;;;;;23.10;45.80;;;;;;5055635;28;19954;-64
2021/12/09 14:20:36;;;;;;;;;;;23.10;45.80;;;;;;5051914;28;19924;-66
2021/12/09 14:23:02;;;;;;;;;;;23.10;45.80;;;;;;5052478;28;19909;-65
2021/12/09 14:25:31;;;;;;;;;;;23.10;45.80;;;;;;5052343;28;20020;-65
2021/12/09 14:27:57;;;;;;;;;;;23.10;45.80;;;;;;5052392;28;19916;-66
2021/12/09 14:30:24;;;;;;;;;;;23.10;45.80;;;;;;5034411;28;19913;-65
2021/12/09 14:32:54;;;;;;;;;;;23.10;45.70;;;;;;5052491;28;20108;-65
2021/12/09 14:35:22;;;;;;;;;;;23.10;45.70;;;;;;5051737;28;19916;-65
2021/12/09 14:37:49;;;;;;;;;;;23.10;45.70;;;;;;5052121;28;19915;-65
2021/12/09 14:40:20;;;;;;;;;;;23.10;45.70;;;;;;5052150;28;19915;-59
2021/12/09 14:42:51;;;;;;;;;;;23.10;45.60;;;;;;5052246;28;19924;-61
2021/12/09 14:45:16;;;;;;;;;;;23.10;45.60;;;;;;5052268;28;19917;-67
2021/12/09 14:47:52;;;;;;;;;;;23.10;45.60;;;;;;5052037;28;19909;-66
2021/12/09 14:50:18;;;;;;;;;;;23.10;45.60;;;;;;5051571;28;19909;-64
2021/12/09 14:52:44;;;;;;;;;;;23.10;45.60;;;;;;5056522;28;19923;-64
2021/12/09 14:55:18;;;;;;;;;;;23.20;45.60;;;;;;5072081;28;19958;-64
2021/12/09 14:58:04;;;;;;;;;;;23.20;45.60;;;;;;5065154;28;19923;-64
2021/12/09 15:00:41;;;;;;;;;;;23.10;45.50;;;;;;5049273;28;19913;-65
2021/12/09 15:03:08;;;;;;;;;;;23.20;45.50;;;;;;5048883;28;19959;-65
2021/12/09 15:06:03;;;;;;;;;;;23.10;45.50;;;;;;5049423;28;19955;-64